Denver, Colorado
Traffic Map
Current Weather Conditions
Denver, Colorado
Scattered Clouds
Scattered Clouds
79°
Feels Like: 79°
Wind Chill: 79° Ceiling: Unl
Heat Index: 79° Visibility: 10mi
Dew Point: 42° Wind: 1mph
Humidity: 28% Direction: 90° (E)
Pressure: 30.32in Gusts: 0mph
Raw Report DataKBKF 291758Z 09001KT 10SM FEW110 SCT150 SCT220 26/06 A3032 RMK AO2A SLP193 T02590058 10271 20160 50005
Traffic Incident Summary
Active as of:
Severity:
Category:
InformationThere was an issue retrieving the traffic information for this location. Please try a different location or try again shortly.
Advertisements
Track Severe Weather on mobile